Time;durP1;ratioP1;P1;durP2;ratioP2;P2;SDS_P1;SDS_P2;PMS_P1;PMS_P2;Temp;Humidity;BMP_temperature;BMP_pressure;BME280_temperature;BME280_humidity;BME280_pressure;Samples;Min_cycle;Max_cycle;Signal;HPM_P1;HPM_P2
2022/05/08 04:03:28;;;;;;;8.35;7.50;;;9.10;99.90;;;;;;5947246;22;20233;-71
2022/05/08 04:05:54;;;;;;;9.37;8.37;;;9.20;99.90;;;;;;5014923;28;20547;-71
2022/05/08 04:08:19;;;;;;;9.53;8.30;;;9.10;99.90;;;;;;5033207;28;20177;-72
2022/05/08 04:10:45;;;;;;;8.80;7.50;;;9.10;99.90;;;;;;5033592;28;20174;-72
2022/05/08 04:13:11;;;;;;;9.00;8.07;;;9.10;99.90;;;;;;5032978;28;20614;-72
2022/05/08 04:18:20;;;;;;;10.02;8.32;;;9.00;99.90;;;;;;5033061;28;20214;-72
2022/05/08 04:20:46;;;;;;;9.40;8.50;;;9.00;99.90;;;;;;5033354;28;20170;-72
2022/05/08 04:25:56;;;;;;;9.85;7.60;;;9.10;99.90;;;;;;5033381;28;20544;-72
2022/05/08 04:28:22;;;;;;;7.90;7.10;;;9.10;99.90;;;;;;5033092;28;20170;-72
2022/05/08 04:30:48;;;;;;;11.10;7.30;;;9.00;99.90;;;;;;5033146;28;20166;-73
2022/05/08 04:33:14;;;;;;;7.15;6.50;;;9.10;99.90;;;;;;5013855;28;20262;-73
2022/05/08 04:35:40;;;;;;;8.70;6.63;;;9.10;99.90;;;;;;5015622;28;20178;-72
2022/05/08 04:38:05;;;;;;;8.77;7.97;;;9.10;99.90;;;;;;5037284;28;20404;-72
2022/05/08 04:40:31;;;;;;;8.27;7.47;;;9.10;99.90;;;;;;5036969;28;20177;-73
2022/05/08 04:42:57;;;;;;;8.30;7.50;;;9.20;99.90;;;;;;5036734;28;20170;-72
2022/05/08 04:45:22;;;;;;;8.27;7.30;;;9.20;99.90;;;;;;5037158;28;20213;-72
2022/05/08 04:47:48;;;;;;;10.70;7.97;;;9.20;99.90;;;;;;5037006;28;20181;-72
2022/05/08 04:50:13;;;;;;;9.77;7.77;;;9.20;99.90;;;;;;5018985;28;20555;-72
2022/05/08 04:52:39;;;;;;;9.10;7.60;;;9.20;99.90;;;;;;5036485;28;20252;-72
2022/05/08 04:55:05;;;;;;;9.83;8.30;;;9.20;99.90;;;;;;5036734;28;20190;-71
2022/05/08 04:57:31;;;;;;;10.20;7.85;;;9.30;99.90;;;;;;5036986;28;20174;-71
2022/05/08 04:59:57;;;;;;;8.30;6.87;;;9.30;99.90;;;;;;5018893;28;20223;-71
2022/05/08 05:02:23;;;;;;;8.30;7.55;;;9.30;99.90;;;;;;5036168;28;20174;-71
2022/05/08 05:04:48;;;;;;;10.70;7.60;;;9.30;99.90;;;;;;5036274;28;20202;-71
2022/05/08 05:07:14;;;;;;;9.80;8.17;;;9.30;99.90;;;;;;5036724;28;20409;-72
2022/05/08 05:09:40;;;;;;;9.23;7.97;;;9.40;99.90;;;;;;5036679;28;20357;-72
2022/05/08 05:12:06;;;;;;;9.37;8.20;;;9.50;99.90;;;;;;5036131;28;20213;-73
2022/05/08 05:14:32;;;;;;;8.40;7.50;;;9.60;99.90;;;;;;5036410;28;20200;-73
2022/05/08 05:17:00;;;;;;;9.95;7.20;;;9.60;99.90;;;;;;5036042;28;20205;-72
2022/05/08 05:19:26;;;;;;;9.10;7.03;;;9.70;99.90;;;;;;5036407;28;20194;-72
2022/05/08 05:21:52;;;;;;;11.30;8.15;;;9.80;99.90;;;;;;5018624;28;20559;-72
2022/05/08 05:24:17;;;;;;;8.87;7.97;;;9.90;99.90;;;;;;5035789;28;20255;-73
2022/05/08 05:26:43;;;;;;;8.97;8.17;;;10.00;99.90;;;;;;5036166;28;20215;-72
2022/05/08 05:29:08;;;;;;;8.80;7.37;;;10.10;99.90;;;;;;5036339;28;20204;-72
2022/05/08 05:31:34;;;;;;;10.23;7.57;;;10.20;99.90;;;;;;5035775;28;20174;-72
2022/05/08 05:34:00;;;;;;;9.40;7.67;;;10.30;99.90;;;;;;5035677;28;20201;-72
2022/05/08 05:36:25;;;;;;;9.03;8.00;;;10.40;99.90;;;;;;5036251;28;20166;-72
2022/05/08 05:38:51;;;;;;;7.40;6.80;;;10.40;99.90;;;;;;5036130;28;20173;-72
2022/05/08 05:41:16;;;;;;;9.93;7.37;;;10.60;99.90;;;;;;5035879;28;20174;-73
2022/05/08 05:43:42;;;;;;;10.57;7.50;;;10.60;99.90;;;;;;5035648;28;20571;-72
2022/05/08 05:48:51;;;;;;;8.63;7.72;;;10.70;99.90;;;;;;5035294;28;20189;-72
2022/05/08 05:51:17;;;;;;;10.50;7.83;;;10.70;99.90;;;;;;5036011;28;20249;-72
2022/05/08 05:53:43;;;;;;;9.57;7.47;;;10.90;99.90;;;;;;5035294;28;20190;-73
2022/05/08 05:56:09;;;;;;;9.00;8.10;;;10.90;99.90;;;;;;5036181;28;20167;-72
2022/05/08 05:58:35;;;;;;;8.55;7.15;;;11.00;99.90;;;;;;5035441;28;20167;-72
2022/05/08 06:01:01;;;;;;;8.10;6.70;;;11.10;99.90;;;;;;5035340;28;20187;-73
2022/05/08 06:03:27;;;;;;;8.77;7.63;;;11.10;99.90;;;;;;5034992;28;20865;-72
2022/05/08 06:05:53;;;;;;;9.10;7.30;;;11.20;99.90;;;;;;5035696;28;20431;-72
2022/05/08 06:08:18;;;;;;;7.63;6.90;;;11.30;99.90;;;;;;5017717;28;20541;-71
2022/05/08 06:10:44;;;;;;;8.17;7.37;;;11.40;99.90;;;;;;5035793;28;20187;-72
2022/05/08 06:13:09;;;;;;;7.53;6.50;;;11.40;99.90;;;;;;5034453;28;20196;-73
2022/05/08 06:15:35;;;;;;;8.70;7.07;;;11.60;99.90;;;;;;5035385;28;20713;-72
2022/05/08 06:18:01;;;;;;;9.90;7.87;;;11.80;99.90;;;;;;5035528;28;20510;-73
2022/05/08 06:20:26;;;;;;;9.80;7.37;;;12.00;99.90;;;;;;5035420;28;20176;-72
2022/05/08 06:22:54;;;;;;;7.33;6.63;;;12.10;99.90;;;;;;5034795;28;20176;-71
2022/05/08 06:25:20;;;;;;;7.73;7.03;;;12.30;99.90;;;;;;5035301;28;20214;-73
2022/05/08 06:27:45;;;;;;;8.73;7.90;;;12.50;99.90;;;;;;5030060;28;20936;-73
2022/05/08 06:30:12;;;;;;;7.13;6.43;;;12.70;99.90;;;;;;5034760;28;20398;-73
2022/05/08 06:32:37;;;;;;;8.90;7.77;;;12.80;99.90;;;;;;5034622;28;20165;-72
2022/05/08 06:35:03;;;;;;;7.07;6.37;;;13.00;99.90;;;;;;5017293;28;20948;-72
2022/05/08 06:37:29;;;;;;;7.50;5.80;;;13.10;99.90;;;;;;5035022;28;20187;-72
2022/05/08 06:39:54;;;;;;;6.50;5.93;;;13.10;99.90;;;;;;5034959;28;20412;-71
2022/05/08 06:42:20;;;;;;;7.30;6.60;;;13.30;99.90;;;;;;5034256;28;20738;-73
2022/05/08 06:44:46;;;;;;;6.73;6.03;;;13.30;99.90;;;;;;5034489;28;20212;-74
2022/05/08 06:47:11;;;;;;;9.77;6.80;;;13.40;99.90;;;;;;5016730;28;20253;-73
2022/05/08 06:49:37;;;;;;;7.47;6.73;;;13.50;99.90;;;;;;5034689;28;20174;-74
2022/05/08 06:52:03;;;;;;;7.30;6.17;;;13.70;99.90;;;;;;5034322;28;20578;-74
2022/05/08 06:54:29;;;;;;;7.00;6.30;;;13.80;99.90;;;;;;5034492;28;20197;-73
2022/05/08 06:56:56;;;;;;;6.37;5.90;;;13.80;99.90;;;;;;5034051;28;20900;-72
2022/05/08 07:02:07;;;;;;;8.23;7.47;;;14.30;99.90;;;;;;5034209;28;20753;-71
2022/05/08 07:04:33;;;;;;;6.07;5.57;;;14.40;99.90;;;;;;5034150;28;20469;-72
2022/05/08 07:06:59;;;;;;;7.13;6.53;;;14.50;99.90;;;;;;5034217;28;20451;-74
2022/05/08 07:09:24;;;;;;;8.10;7.30;;;14.50;99.90;;;;;;5034332;28;20381;-73
2022/05/08 07:11:50;;;;;;;8.53;7.20;;;14.70;99.90;;;;;;5033822;28;20184;-76
2022/05/08 07:14:16;;;;;;;7.70;7.00;;;14.80;99.90;;;;;;5015627;28;20198;-74
2022/05/08 07:16:42;;;;;;;7.87;7.07;;;14.90;99.90;;;;;;5034082;28;20572;-75
2022/05/08 07:19:08;;;;;;;7.10;6.60;;;15.10;99.90;;;;;;4999986;28;20929;-75
2022/05/08 07:21:34;;;;;;;6.90;6.20;;;15.30;99.90;;;;;;5033973;28;20385;-76
2022/05/08 07:23:59;;;;;;;6.83;6.17;;;15.40;99.90;;;;;;5033303;28;20294;-75
2022/05/08 07:26:25;;;;;;;7.57;6.90;;;15.60;99.90;;;;;;5033322;28;20189;-75
2022/05/08 07:28:51;;;;;;;6.63;5.93;;;15.90;99.90;;;;;;5033584;28;20181;-75
2022/05/08 07:31:16;;;;;;;9.53;8.53;;;16.40;99.90;;;;;;5033747;28;20650;-73
2022/05/08 07:33:42;;;;;;;8.40;7.60;;;16.70;99.90;;;;;;5032789;28;20193;-73
2022/05/08 07:36:14;;;;;;;8.57;7.67;;;16.90;99.90;;;;;;5014932;28;20392;-73
2022/05/08 07:38:46;;;;;;;8.60;7.80;;;17.20;99.90;;;;;;5033523;28;20246;-73
2022/05/08 07:41:15;;;;;;;9.00;8.10;;;17.40;99.90;;;;;;5033393;28;20493;-72
2022/05/08 07:43:45;;;;;;;7.50;6.80;;;17.70;99.90;;;;;;5032242;28;20990;-73
2022/05/08 07:46:11;;;;;;;7.83;7.07;;;18.00;99.90;;;;;;5033372;28;20402;-73
2022/05/08 07:48:37;;;;;;;7.40;6.70;;;18.30;99.90;;;;;;5033240;28;20458;-74
2022/05/08 07:51:04;;;;;;;9.63;8.17;;;18.30;99.90;;;;;;5033509;28;20471;-74
2022/05/08 07:53:31;;;;;;;8.43;7.63;;;18.50;99.90;;;;;;5014888;28;20452;-67
2022/05/08 07:56:00;;;;;;;7.50;6.80;;;19.00;99.90;;;;;;5033187;28;20945;-71
2022/05/08 07:58:32;;;;;;;8.33;7.53;;;19.30;99.90;;;;;;5032872;28;20776;-68
2022/05/08 08:00:59;;;;;;;8.03;7.33;;;19.50;99.90;;;;;;5033278;28;20853;-67
2022/05/08 08:03:28;;;;;;;7.20;6.50;;;19.70;99.80;;;;;;5032778;28;20773;-73
2022/05/08 08:05:56;;;;;;;7.40;6.70;;;20.00;99.20;;;;;;5033111;28;20427;-69
2022/05/08 08:08:23;;;;;;;8.93;8.00;;;20.00;99.10;;;;;;5032962;28;20401;-69
2022/05/08 08:10:52;;;;;;;8.03;7.23;;;19.90;98.90;;;;;;5032229;28;20905;-69
2022/05/08 08:13:18;;;;;;;7.40;6.70;;;20.00;98.90;;;;;;5031725;28;20480;-68
2022/05/08 08:15:44;;;;;;;7.90;7.23;;;20.20;98.10;;;;;;5032776;28;20429;-72
2022/05/08 08:18:14;;;;;;;7.30;6.50;;;20.10;97.90;;;;;;5014820;28;20416;-70
2022/05/08 08:20:40;;;;;;;8.30;7.50;;;19.80;98.40;;;;;;5015073;28;20416;-66
2022/05/08 08:23:06;;;;;;;10.03;6.97;;;19.60;98.60;;;;;;5032403;28;20421;-66
2022/05/08 08:25:32;;;;;;;7.80;7.00;;;19.70;98.80;;;;;;5014740;28;20578;-66
2022/05/08 08:27:58;;;;;;;7.33;6.53;;;19.90;98.70;;;;;;5032555;28;20534;-66
2022/05/08 08:30:23;;;;;;;7.57;6.63;;;20.10;98.40;;;;;;5032833;28;20536;-66
2022/05/08 08:32:49;;;;;;;8.13;7.33;;;20.10;98.10;;;;;;5032346;28;20212;-66
2022/05/08 08:35:15;;;;;;;7.37;6.60;;;20.30;98.20;;;;;;5032828;28;20201;-68
2022/05/08 08:37:40;;;;;;;6.80;6.10;;;20.50;97.60;;;;;;5014889;28;20608;-68
2022/05/08 08:40:06;;;;;;;8.40;7.60;;;20.80;97.70;;;;;;5032745;28;20548;-68
2022/05/08 08:42:33;;;;;;;7.10;6.50;;;21.10;98.00;;;;;;5032103;28;20260;-67
2022/05/08 08:47:56;;;;;;;8.47;6.40;;;21.60;96.70;;;;;;5033091;28;20447;-69
2022/05/08 08:50:27;;;;;;;9.10;7.60;;;21.80;96.40;;;;;;5032340;28;20391;-68
2022/05/08 08:53:11;;;;;;;8.77;7.07;;;22.20;96.70;;;;;;5014562;28;20592;-69
2022/05/08 08:55:36;;;;;;;6.70;6.13;;;22.60;96.40;;;;;;5032951;28;20411;-68
2022/05/08 08:58:02;;;;;;;7.03;6.43;;;22.80;95.60;;;;;;5032447;28;20453;-68
2022/05/08 09:00:30;;;;;;;7.70;7.00;;;23.00;95.30;;;;;;5032036;28;20650;-68
2022/05/08 09:02:56;;;;;;;8.07;7.40;;;23.00;95.00;;;;;;5032029;28;20172;-68
2022/05/08 09:05:28;;;;;;;9.07;7.07;;;23.10;94.90;;;;;;5032280;28;20460;-68
2022/05/08 09:08:00;;;;;;;8.80;7.90;;;23.10;94.90;;;;;;5032653;28;20672;-68
2022/05/08 09:10:35;;;;;;;6.63;6.13;;;23.10;94.60;;;;;;5032181;28;20393;-68
2022/05/08 09:13:07;;;;;;;6.50;6.00;;;23.10;95.20;;;;;;5031935;28;20504;-69
2022/05/08 09:15:35;;;;;;;6.97;6.27;;;23.40;94.60;;;;;;5032329;28;20424;-68
2022/05/08 09:18:05;;;;;;;6.63;6.03;;;23.50;94.00;;;;;;5032224;28;20413;-68
2022/05/08 09:20:39;;;;;;;6.97;6.30;;;23.60;94.70;;;;;;5032452;28;20416;-68
2022/05/08 09:23:21;;;;;;;7.20;6.60;;;23.70;95.10;;;;;;5032953;28;20400;-67
2022/05/08 09:26:08;;;;;;;6.27;5.77;;;23.90;94.40;;;;;;5035734;28;20409;-68
2022/05/08 09:28:42;;;;;;;6.50;5.87;;;23.90;94.30;;;;;;5035961;28;20383;-68
2022/05/08 09:31:18;;;;;;;7.03;6.37;;;23.70;94.60;;;;;;5035734;28;20409;-68
2022/05/08 09:33:49;;;;;;;5.60;5.10;;;23.90;94.40;;;;;;5034863;28;20955;-68
2022/05/08 09:36:27;;;;;;;7.30;6.60;;;24.20;94.50;;;;;;5035360;28;20459;-68
2022/05/08 09:38:54;;;;;;;8.07;7.30;;;24.50;94.00;;;;;;5035788;28;20693;-68
2022/05/08 09:41:30;;;;;;;7.53;6.93;;;24.70;93.60;;;;;;5035782;28;20424;-68
2022/05/08 09:44:12;;;;;;;8.10;7.27;;;24.70;93.40;;;;;;5017097;28;20526;-68
2022/05/08 09:46:38;;;;;;;6.87;6.23;;;24.80;93.40;;;;;;5035816;28;20437;-68
2022/05/08 09:49:11;;;;;;;7.43;6.70;;;24.90;93.10;;;;;;5033622;28;20404;-68
2022/05/08 09:51:38;;;;;;;6.53;5.93;;;25.00;92.90;;;;;;5033581;28;20386;-69
2022/05/08 09:54:09;;;;;;;6.57;6.07;;;25.10;93.30;;;;;;5033285;28;20452;-67
2022/05/08 09:56:38;;;;;;;5.90;5.40;;;25.20;92.70;;;;;;5033122;28;20467;-68
2022/05/08 09:59:07;;;;;;;6.80;6.27;;;25.00;92.50;;;;;;5033358;28;20459;-69
2022/05/08 10:01:36;;;;;;;6.97;6.37;;;25.20;91.50;;;;;;4998838;28;20416;-68
2022/05/08 10:04:03;;;;;;;7.53;6.83;;;25.60;90.90;;;;;;5034472;28;20476;-69
2022/05/08 10:06:34;;;;;;;6.57;6.03;;;26.00;89.70;;;;;;5017025;28;20445;-68
2022/05/08 10:14:33;;;;;;;5.00;4.60;;;26.00;84.50;;;;;;5035329;28;20432;-68
2022/05/08 10:17:05;;;;;;;4.17;3.87;;;26.00;83.50;;;;;;5034905;28;20409;-67
2022/05/08 10:19:30;;;;;;;6.90;4.20;;;25.90;79.80;;;;;;5016900;28;20913;-68
2022/05/08 10:22:32;;;;;;;4.20;3.27;;;25.70;77.20;;;;;;5035014;28;20463;-68
2022/05/08 10:25:13;;;;;;;4.57;4.27;;;25.50;77.40;;;;;;5030880;28;20229;-68
2022/05/08 10:28:04;;;;;;;3.90;3.57;;;25.30;78.30;;;;;;5034994;28;20397;-67
2022/05/08 10:30:32;;;;;;;5.23;3.83;;;24.90;76.30;;;;;;5035052;28;20399;-68
2022/05/08 10:32:58;;;;;;;3.40;3.17;;;24.60;77.50;;;;;;5034026;28;20394;-67
2022/05/08 10:35:32;;;;;;;4.23;3.87;;;24.30;76.90;;;;;;5034611;28;20942;-69
2022/05/08 10:38:07;;;;;;;5.23;3.23;;;24.30;78.50;;;;;;5034719;28;20505;-70
2022/05/08 10:40:34;;;;;;;3.77;3.47;;;24.30;77.70;;;;;;5034758;28;20462;-68
2022/05/08 10:43:13;;;;;;;4.20;3.73;;;24.20;78.50;;;;;;5034212;28;20458;-67
2022/05/08 10:45:41;;;;;;;8.70;4.40;;;24.10;79.30;;;;;;5034329;28;20903;-68
2022/05/08 10:48:17;;;;;;;3.87;3.57;;;24.00;79.20;;;;;;5034549;28;20765;-68
2022/05/08 10:50:51;;;;;;;4.23;3.87;;;24.00;80.30;;;;;;5034653;28;20398;-68
2022/05/08 10:53:42;;;;;;;4.33;4.03;;;24.10;81.20;;;;;;5034108;28;20400;-68
2022/05/08 10:56:11;;;;;;;4.23;3.93;;;24.20;80.70;;;;;;5029673;28;20446;-69
2022/05/08 10:58:40;;;;;;;4.37;4.07;;;24.20;80.20;;;;;;5034558;28;20448;-68
2022/05/08 11:01:09;;;;;;;6.10;5.60;;;24.40;79.90;;;;;;5034587;28;20949;-69
2022/05/08 11:03:35;;;;;;;5.77;4.63;;;24.60;79.90;;;;;;5033573;28;20445;-69
2022/05/08 11:06:03;;;;;;;4.50;4.10;;;25.00;80.20;;;;;;5034228;28;20458;-68
2022/05/08 11:08:31;;;;;;;5.40;5.00;;;25.00;79.10;;;;;;5034430;28;20771;-68
2022/05/08 11:11:09;;;;;;;5.03;4.63;;;24.80;80.40;;;;;;5034359;28;20374;-68
2022/05/08 11:13:43;;;;;;;5.80;5.30;;;24.60;80.80;;;;;;5033843;28;20433;-68
2022/05/08 11:16:13;;;;;;;4.73;4.33;;;24.40;80.30;;;;;;5034081;28;20421;-68
2022/05/08 11:18:39;;;;;;;4.63;4.17;;;24.10;82.20;;;;;;5033251;28;20415;-67
2022/05/08 11:21:09;;;;;;;4.20;3.80;;;23.70;82.00;;;;;;5034021;28;20781;-68
2022/05/08 11:23:42;;;;;;;3.87;3.57;;;23.50;81.70;;;;;;5033251;28;20435;-68
2022/05/08 11:26:10;;;;;;;4.60;4.20;;;23.40;81.90;;;;;;5034027;28;20781;-68
2022/05/08 11:28:46;;;;;;;4.93;3.67;;;23.20;81.10;;;;;;5033934;28;20376;-68
2022/05/08 11:31:16;;;;;;;4.30;3.67;;;22.90;81.60;;;;;;5033818;28;20379;-68
2022/05/08 11:36:31;;;;;;;4.20;3.80;;;22.80;83.10;;;;;;5034080;28;20411;-68
2022/05/08 11:39:04;;;;;;;5.93;4.80;;;22.80;83.30;;;;;;5033694;28;20409;-68
2022/05/08 11:41:32;;;;;;;4.07;3.40;;;22.80;84.40;;;;;;5033444;28;20409;-67
2022/05/08 11:44:02;;;;;;;3.80;3.60;;;22.70;82.80;;;;;;5033042;28;20466;-68
2022/05/08 11:46:38;;;;;;;3.50;3.03;;;22.70;83.90;;;;;;5032492;28;20406;-68
2022/05/08 11:49:20;;;;;;;3.57;3.27;;;22.80;83.70;;;;;;5033200;28;20758;-68
2022/05/08 11:51:51;;;;;;;4.33;4.03;;;22.70;81.20;;;;;;5033838;28;20384;-66
2022/05/08 11:54:27;;;;;;;5.40;4.27;;;22.70;82.10;;;;;;5032887;28;20937;-66
2022/05/08 11:57:21;;;;;;;5.63;5.23;;;22.60;83.20;;;;;;5033386;28;20565;-68
2022/05/08 11:59:51;;;;;;;4.90;4.60;;;22.60;83.60;;;;;;5033184;28;20804;-68
2022/05/08 12:02:18;;;;;;;4.63;4.27;;;22.70;84.20;;;;;;5032433;28;20765;-68
2022/05/08 12:04:53;;;;;;;5.40;4.37;;;22.70;85.00;;;;;;5033182;28;20484;-68
2022/05/08 12:07:19;;;;;;;4.20;3.90;;;22.70;84.90;;;;;;5033174;28;20491;-69
2022/05/08 12:09:45;;;;;;;4.63;4.30;;;22.80;84.60;;;;;;5032768;28;20430;-68
2022/05/08 12:12:36;;;;;;;3.67;3.40;;;22.80;83.40;;;;;;5032425;28;20179;-67
2022/05/08 12:15:07;;;;;;;3.53;3.27;;;22.60;82.90;;;;;;5032509;28;20197;-68
2022/05/08 12:17:41;;;;;;;3.30;3.10;;;22.70;82.30;;;;;;5032618;28;20390;-67
2022/05/08 12:20:26;;;;;;;4.30;4.00;;;22.70;83.00;;;;;;5032576;28;20401;-69
2022/05/08 12:23:03;;;;;;;3.20;3.00;;;22.70;82.70;;;;;;5032487;28;20791;-67
2022/05/08 12:25:30;;;;;;;3.90;3.60;;;22.70;83.10;;;;;;5032512;28;20492;-67
2022/05/08 12:27:56;;;;;;;3.57;3.37;;;22.70;83.20;;;;;;5032400;28;20470;-67
2022/05/08 12:30:22;;;;;;;3.80;3.40;;;22.70;82.40;;;;;;5032217;28;20550;-68
2022/05/08 12:32:47;;;;;;;4.30;4.00;;;22.80;81.50;;;;;;5032143;28;20391;-67
2022/05/08 12:35:13;;;;;;;6.30;3.20;;;22.90;81.50;;;;;;5032738;28;20420;-67
2022/05/08 12:37:39;;;;;;;2.63;2.43;;;23.10;81.60;;;;;;5032746;28;20644;-67
2022/05/08 12:40:07;;;;;;;2.80;2.60;;;23.30;77.40;;;;;;5032476;28;20182;-68
2022/05/08 12:42:32;;;;;;;3.30;3.00;;;23.40;77.20;;;;;;5032411;28;20187;-68
2022/05/08 12:44:58;;;;;;;3.07;2.87;;;23.40;76.90;;;;;;5032111;28;20458;-67
2022/05/08 12:47:24;;;;;;;3.20;3.00;;;23.20;76.30;;;;;;5032903;28;20706;-67
2022/05/08 12:49:50;;;;;;;3.30;3.10;;;23.00;77.70;;;;;;5032687;28;20541;-67
2022/05/08 12:52:16;;;;;;;3.30;3.10;;;22.90;77.80;;;;;;5032332;28;20222;-67
2022/05/08 12:54:42;;;;;;;6.00;2.90;;;22.90;76.60;;;;;;5032769;28;20199;-67
2022/05/08 12:57:09;;;;;;;3.57;3.27;;;22.80;76.70;;;;;;5033765;28;20449;-68
2022/05/08 12:59:46;;;;;;;2.53;2.33;;;22.80;76.40;;;;;;5036104;28;20239;-67
2022/05/08 13:02:20;;;;;;;2.83;2.63;;;22.70;75.00;;;;;;5036362;28;20507;-69
2022/05/08 13:04:48;;;;;;;2.80;2.60;;;22.50;75.10;;;;;;5036180;28;20812;-69
2022/05/08 13:07:14;;;;;;;3.07;2.83;;;22.50;75.00;;;;;;5036595;28;20495;-68
2022/05/08 13:09:40;;;;;;;3.80;2.70;;;22.50;76.00;;;;;;5036496;28;20388;-68
2022/05/08 13:12:06;;;;;;;3.13;2.83;;;22.50;75.20;;;;;;5036270;28;20432;-69
2022/05/08 13:14:34;;;;;;;3.03;2.83;;;22.60;76.20;;;;;;5036044;28;20216;-68
2022/05/08 13:17:01;;;;;;;5.60;5.10;;;22.60;76.80;;;;;;5036131;28;20412;-69
2022/05/08 13:19:29;;;;;;;2.80;2.60;;;22.60;77.70;;;;;;5036136;28;20454;-68
2022/05/08 13:21:57;;;;;;;2.83;2.63;;;22.70;76.60;;;;;;5036063;28;20395;-68
2022/05/08 13:24:23;;;;;;;2.77;2.57;;;22.80;76.90;;;;;;5035889;28;20438;-68
2022/05/08 13:26:51;;;;;;;3.10;2.80;;;22.80;77.70;;;;;;5036399;28;20391;-68
2022/05/08 13:29:16;;;;;;;3.70;2.97;;;22.70;78.10;;;;;;5018124;28;20471;-68
2022/05/08 13:31:42;;;;;;;2.97;2.77;;;22.80;76.90;;;;;;5036009;28;20891;-67
2022/05/08 13:34:09;;;;;;;2.83;2.63;;;22.80;76.90;;;;;;5035337;28;20202;-68
2022/05/08 13:36:36;;;;;;;2.73;2.50;;;22.80;76.80;;;;;;5035754;28;20321;-68
2022/05/08 13:39:02;;;;;;;2.50;2.30;;;22.80;77.80;;;;;;5035860;28;20414;-68
2022/05/08 13:41:28;;;;;;;2.90;2.70;;;22.80;77.30;;;;;;5035735;28;20413;-68
2022/05/08 13:43:53;;;;;;;3.20;3.00;;;22.80;77.60;;;;;;5034772;28;20540;-68
2022/05/08 13:46:19;;;;;;;2.87;2.67;;;22.60;75.50;;;;;;5035505;28;20593;-68
2022/05/08 13:48:45;;;;;;;2.80;2.60;;;22.50;75.10;;;;;;5017631;28;20340;-68
2022/05/08 13:51:13;;;;;;;3.27;3.00;;;22.40;75.30;;;;;;5036005;28;20278;-68
2022/05/08 13:53:39;;;;;;;3.13;2.43;;;22.30;76.20;;;;;;5035117;28;20454;-68
2022/05/08 13:56:05;;;;;;;4.57;3.40;;;22.30;76.50;;;;;;5035540;28;20393;-68
2022/05/08 13:58:31;;;;;;;3.23;3.03;;;22.30;77.00;;;;;;5034722;28;20510;-68
2022/05/08 14:00:57;;;;;;;4.53;3.17;;;22.40;77.70;;;;;;5034819;28;20187;-67
2022/05/08 14:03:22;;;;;;;2.50;2.30;;;22.40;78.90;;;;;;5034820;28;20190;-67
2022/05/08 14:05:50;;;;;;;3.27;2.97;;;22.40;78.50;;;;;;5035277;28;20190;-68
2022/05/08 14:08:17;;;;;;;2.50;2.30;;;22.40;77.60;;;;;;5034871;28;20558;-69
2022/05/08 14:10:44;;;;;;;2.93;2.67;;;22.50;78.10;;;;;;5034773;28;20371;-68
2022/05/08 14:13:10;;;;;;;2.70;2.33;;;22.60;80.10;;;;;;5034453;28;20433;-69
2022/05/08 14:15:36;;;;;;;3.63;2.40;;;22.70;77.90;;;;;;5034985;28;20383;-68
2022/05/08 14:18:02;;;;;;;3.20;2.93;;;22.80;78.20;;;;;;5034668;28;20385;-68
2022/05/08 14:20:28;;;;;;;3.00;2.80;;;22.80;79.20;;;;;;5034944;28;20590;-68
2022/05/08 14:22:55;;;;;;;3.40;3.20;;;22.80;79.00;;;;;;5034773;28;20410;-67
2022/05/08 14:25:21;;;;;;;2.80;2.63;;;22.70;76.00;;;;;;5034679;28;20536;-68
2022/05/08 14:27:46;;;;;;;2.77;2.57;;;22.70;77.10;;;;;;5017239;28;20393;-68
2022/05/08 14:30:12;;;;;;;3.00;2.80;;;22.60;77.20;;;;;;5033995;28;20375;-67
2022/05/08 14:38:07;;;;;;;3.03;2.73;;;22.70;79.70;;;;;;5034416;28;20436;-68
2022/05/08 14:40:34;;;;;;;3.00;2.70;;;22.60;79.60;;;;;;5034735;28;20478;-67
2022/05/08 14:42:59;;;;;;;2.73;2.53;;;22.60;79.90;;;;;;5016611;28;20411;-69
2022/05/08 14:45:27;;;;;;;3.37;2.80;;;22.60;80.00;;;;;;5034869;28;20826;-67
2022/05/08 14:47:52;;;;;;;2.90;2.63;;;22.60;80.40;;;;;;5034467;28;20203;-69
2022/05/08 14:50:18;;;;;;;3.23;3.03;;;22.60;80.00;;;;;;5034366;28;20833;-68
2022/05/08 14:52:44;;;;;;;3.17;2.90;;;22.60;79.40;;;;;;5016116;28;20627;-68
2022/05/08 14:55:09;;;;;;;2.90;2.70;;;22.60;80.30;;;;;;5034257;28;20175;-68
2022/05/08 14:57:35;;;;;;;3.10;2.90;;;22.60;80.80;;;;;;5034226;28;20227;-68
2022/05/08 15:00:01;;;;;;;3.37;3.10;;;22.70;82.00;;;;;;5034003;28;20220;-69
2022/05/08 15:02:26;;;;;;;3.00;2.80;;;22.70;80.40;;;;;;5033950;28;20254;-68
2022/05/08 15:04:52;;;;;;;3.03;2.73;;;22.80;80.40;;;;;;5033403;28;20563;-68
2022/05/08 15:07:17;;;;;;;2.83;2.60;;;22.70;80.40;;;;;;5034022;28;20170;-68
2022/05/08 15:09:43;;;;;;;2.90;2.70;;;22.70;80.80;;;;;;5033831;28;20199;-68
2022/05/08 15:12:09;;;;;;;2.90;2.70;;;22.60;81.00;;;;;;5033833;28;20176;-68
2022/05/08 15:14:35;;;;;;;3.00;2.80;;;22.50;81.10;;;;;;5033595;28;20558;-68
2022/05/08 15:17:00;;;;;;;3.13;2.80;;;22.50;81.10;;;;;;5033823;28;20524;-67
2022/05/08 15:19:26;;;;;;;3.10;2.90;;;22.50;80.80;;;;;;5033722;28;20207;-68
2022/05/08 15:21:53;;;;;;;3.13;2.93;;;22.40;80.30;;;;;;5032878;28;20524;-67
2022/05/08 15:24:20;;;;;;;3.43;3.23;;;22.40;80.90;;;;;;5032577;28;20286;-67
2022/05/08 15:26:46;;;;;;;2.73;2.50;;;22.40;81.20;;;;;;5033725;28;20391;-72
2022/05/08 15:29:12;;;;;;;5.90;2.90;;;22.40;81.90;;;;;;5015795;28;20411;-72
2022/05/08 15:31:39;;;;;;;3.27;3.00;;;22.40;79.00;;;;;;5016017;28;20394;-74
2022/05/08 15:34:05;;;;;;;3.53;3.23;;;22.30;79.70;;;;;;5032983;28;20195;-70
2022/05/08 15:36:31;;;;;;;6.70;3.00;;;22.30;80.60;;;;;;5033435;28;20466;-72
2022/05/08 15:38:57;;;;;;;2.63;2.43;;;22.30;81.50;;;;;;5033320;28;20399;-71
2022/05/08 15:41:23;;;;;;;2.83;2.63;;;22.30;80.60;;;;;;5033663;28;20404;-70
2022/05/08 15:43:49;;;;;;;3.20;2.90;;;22.30;81.10;;;;;;5033161;28;20779;-70
2022/05/08 15:46:15;;;;;;;3.80;3.50;;;22.40;81.00;;;;;;5033115;28;20172;-70
2022/05/08 15:48:40;;;;;;;3.33;3.10;;;22.20;81.10;;;;;;5033572;28;20629;-68
2022/05/08 15:51:06;;;;;;;3.10;2.90;;;22.20;81.30;;;;;;5033310;28;20169;-63
2022/05/08 15:53:32;;;;;;;3.30;3.10;;;22.10;80.90;;;;;;5032392;28;20537;-63
2022/05/08 15:55:58;;;;;;;3.20;3.00;;;22.10;80.80;;;;;;5033332;28;20185;-63
2022/05/08 15:58:24;;;;;;;3.37;2.60;;;22.00;81.40;;;;;;5033419;28;20203;-65
2022/05/08 16:00:51;;;;;;;2.73;2.53;;;21.90;81.20;;;;;;5034258;28;20934;-64
2022/05/08 16:03:18;;;;;;;3.20;2.50;;;21.90;81.20;;;;;;5033120;28;20269;-64
2022/05/08 16:05:44;;;;;;;3.47;3.00;;;21.90;80.80;;;;;;5033291;28;20548;-66
2022/05/08 16:08:12;;;;;;;2.67;2.53;;;21.80;80.70;;;;;;5015603;28;20787;-66
2022/05/08 16:10:38;;;;;;;3.20;3.00;;;21.80;81.30;;;;;;5033867;28;20409;-68
2022/05/08 16:24:00;;;;;;;3.10;2.80;;;21.60;82.00;;;;;;5021901;28;20460;-66
2022/05/08 16:26:26;;;;;;;3.80;3.00;;;21.50;82.40;;;;;;5021151;28;20381;-67
2022/05/08 16:28:54;;;;;;;3.10;2.80;;;21.60;82.80;;;;;;5021621;28;20629;-68
2022/05/08 16:31:20;;;;;;;3.10;2.90;;;21.50;82.30;;;;;;5022813;28;20163;-67
2022/05/08 16:33:50;;;;;;;2.70;2.50;;;21.50;82.00;;;;;;5009477;28;20525;-66
2022/05/08 16:36:16;;;;;;;5.93;2.73;;;21.40;82.40;;;;;;5025778;28;20408;-66
2022/05/08 16:38:41;;;;;;;2.30;2.20;;;21.40;83.40;;;;;;5021790;28;20974;-67
2022/05/08 16:41:07;;;;;;;2.90;2.70;;;21.40;82.80;;;;;;5033725;28;20178;-66
2022/05/08 16:43:34;;;;;;;3.00;2.80;;;21.40;83.30;;;;;;5036163;28;20206;-66
2022/05/08 16:46:00;;;;;;;3.27;3.07;;;21.40;83.80;;;;;;5036599;28;20447;-66
2022/05/08 16:48:26;;;;;;;2.90;2.60;;;21.30;84.20;;;;;;5037028;28;20375;-66
2022/05/08 16:50:52;;;;;;;2.90;2.70;;;21.30;83.90;;;;;;5019550;28;20387;-68
2022/05/08 16:53:18;;;;;;;3.13;2.93;;;21.20;84.50;;;;;;5020073;28;20199;-65
2022/05/08 16:55:45;;;;;;;2.70;2.50;;;21.20;84.90;;;;;;5017105;28;20479;-65
2022/05/08 16:58:11;;;;;;;3.17;2.87;;;21.20;85.50;;;;;;5019552;28;20384;-65
2022/05/08 17:00:37;;;;;;;2.80;2.50;;;21.10;86.10;;;;;;5037324;28;20444;-66
2022/05/08 17:03:03;;;;;;;3.17;2.90;;;21.10;86.60;;;;;;5036186;28;20409;-70
2022/05/08 17:05:32;;;;;;;4.67;4.27;;;21.10;86.10;;;;;;5036557;28;20435;-71
2022/05/08 17:07:58;;;;;;;3.60;3.30;;;21.00;86.80;;;;;;5030364;28;20405;-73
2022/05/08 17:10:25;;;;;;;3.20;2.70;;;21.00;86.70;;;;;;5024518;28;20423;-68
2022/05/08 17:12:56;;;;;;;3.10;2.90;;;20.90;87.00;;;;;;5022952;28;20179;-66
2022/05/08 17:15:22;;;;;;;4.20;2.60;;;21.00;87.70;;;;;;5036617;28;20394;-62
2022/05/08 17:17:48;;;;;;;3.10;2.60;;;20.90;88.30;;;;;;5036444;28;20423;-63
2022/05/08 17:20:14;;;;;;;3.07;2.87;;;20.90;87.20;;;;;;5018622;28;20508;-68
2022/05/08 17:22:39;;;;;;;2.33;2.23;;;20.80;88.40;;;;;;5035872;28;20232;-66
2022/05/08 17:25:06;;;;;;;2.83;2.63;;;20.80;89.20;;;;;;5036075;28;20219;-62
2022/05/08 17:30:16;;;;;;;3.83;3.53;;;20.70;90.00;;;;;;5016827;28;20441;-63
2022/05/08 17:32:43;;;;;;;3.13;2.93;;;20.60;90.30;;;;;;5016438;28;20755;-63
2022/05/08 17:35:10;;;;;;;4.00;3.20;;;20.50;90.30;;;;;;5016050;28;20576;-64